sensor_id;sensor_type;location;lat;lon;timestamp;pressure;altitude;pressure_sealevel;temperature;humidity
63447;BME280;49577;49.872;6.190;2023-03-03T00:01:21;99880.06;;;-1.80;72.96
63447;BME280;49577;49.872;6.190;2023-03-03T00:03:49;99882.67;;;-1.88;72.88
63447;BME280;49577;49.872;6.190;2023-03-03T00:06:14;99887.86;;;-1.93;73.13
63447;BME280;49577;49.872;6.190;2023-03-03T00:08:40;99889.93;;;-1.95;73.30
63447;BME280;49577;49.872;6.190;2023-03-03T00:11:06;99887.35;;;-1.93;73.47
63447;BME280;49577;49.872;6.190;2023-03-03T00:13:40;99889.39;;;-1.90;73.42
63447;BME280;49577;49.872;6.190;2023-03-03T00:16:36;99892.09;;;-1.88;73.49
63447;BME280;49577;49.872;6.190;2023-03-03T00:19:04;99888.98;;;-1.85;73.43
63447;BME280;49577;49.872;6.190;2023-03-03T00:21:48;99884.23;;;-1.89;73.13
63447;BME280;49577;49.872;6.190;2023-03-03T00:24:20;99888.23;;;-1.97;73.12
63447;BME280;49577;49.872;6.190;2023-03-03T00:26:55;99887.94;;;-2.04;73.43
63447;BME280;49577;49.872;6.190;2023-03-03T00:29:33;99887.30;;;-2.11;73.47
63447;BME280;49577;49.872;6.190;2023-03-03T00:34:36;99897.27;;;-2.14;73.78
63447;BME280;49577;49.872;6.190;2023-03-03T00:37:02;99899.34;;;-2.19;73.50
63447;BME280;49577;49.872;6.190;2023-03-03T00:39:34;99906.42;;;-2.31;73.55
63447;BME280;49577;49.872;6.190;2023-03-03T00:42:00;99908.35;;;-2.39;73.88
63447;BME280;49577;49.872;6.190;2023-03-03T00:44:38;99912.80;;;-2.43;74.09
63447;BME280;49577;49.872;6.190;2023-03-03T00:50:15;99914.05;;;-2.48;74.21
63447;BME280;49577;49.872;6.190;2023-03-03T00:52:53;99907.91;;;-2.53;74.38
63447;BME280;49577;49.872;6.190;2023-03-03T00:55:20;99913.23;;;-2.57;74.44
63447;BME280;49577;49.872;6.190;2023-03-03T00:57:45;99912.04;;;-2.60;74.71
63447;BME280;49577;49.872;6.190;2023-03-03T01:00:11;99912.90;;;-2.60;74.93
63447;BME280;49577;49.872;6.190;2023-03-03T01:02:37;99913.27;;;-2.64;74.76
63447;BME280;49577;49.872;6.190;2023-03-03T01:05:02;99917.73;;;-2.67;74.76
63447;BME280;49577;49.872;6.190;2023-03-03T01:07:28;99919.80;;;-2.73;74.74
63447;BME280;49577;49.872;6.190;2023-03-03T01:09:53;99915.02;;;-2.75;75.14
63447;BME280;49577;49.872;6.190;2023-03-03T01:12:18;99916.52;;;-2.70;75.42
63447;BME280;49577;49.872;6.190;2023-03-03T01:14:43;99910.35;;;-2.65;75.34
63447;BME280;49577;49.872;6.190;2023-03-03T01:17:09;99908.98;;;-2.64;74.94
63447;BME280;49577;49.872;6.190;2023-03-03T01:19:34;99910.55;;;-2.71;74.71
63447;BME280;49577;49.872;6.190;2023-03-03T01:22:00;99906.98;;;-2.74;75.13
63447;BME280;49577;49.872;6.190;2023-03-03T01:24:25;99904.77;;;-2.75;75.31
63447;BME280;49577;49.872;6.190;2023-03-03T01:26:51;99899.98;;;-2.75;75.26
63447;BME280;49577;49.872;6.190;2023-03-03T01:29:16;99901.86;;;-2.80;75.16
63447;BME280;49577;49.872;6.190;2023-03-03T01:31:41;99908.21;;;-2.84;75.18
63447;BME280;49577;49.872;6.190;2023-03-03T01:34:07;99912.48;;;-2.87;75.38
63447;BME280;49577;49.872;6.190;2023-03-03T01:36:33;99912.84;;;-2.92;75.35
63447;BME280;49577;49.872;6.190;2023-03-03T01:38:59;99914.58;;;-2.99;75.64
63447;BME280;49577;49.872;6.190;2023-03-03T01:41:28;99912.88;;;-2.96;76.21
63447;BME280;49577;49.872;6.190;2023-03-03T01:43:55;99914.05;;;-2.93;76.02
63447;BME280;49577;49.872;6.190;2023-03-03T01:48:51;99911.98;;;-2.91;75.91
63447;BME280;49577;49.872;6.190;2023-03-03T01:51:33;99908.56;;;-2.91;75.84
63447;BME280;49577;49.872;6.190;2023-03-03T01:54:02;99908.26;;;-2.94;75.74
63447;BME280;49577;49.872;6.190;2023-03-03T01:56:28;99911.66;;;-2.95;75.87
63447;BME280;49577;49.872;6.190;2023-03-03T01:59:21;99908.59;;;-2.98;75.83
63447;BME280;49577;49.872;6.190;2023-03-03T02:01:46;99907.92;;;-3.02;75.85
63447;BME280;49577;49.872;6.190;2023-03-03T02:04:12;99907.77;;;-3.07;75.78
63447;BME280;49577;49.872;6.190;2023-03-03T02:06:41;99907.77;;;-3.08;76.00
63447;BME280;49577;49.872;6.190;2023-03-03T02:11:51;99909.50;;;-3.15;76.06
63447;BME280;49577;49.872;6.190;2023-03-03T02:14:19;99902.33;;;-3.17;76.07
63447;BME280;49577;49.872;6.190;2023-03-03T02:16:44;99899.77;;;-3.16;76.29
63447;BME280;49577;49.872;6.190;2023-03-03T02:20:06;99899.41;;;-3.12;76.23
63447;BME280;49577;49.872;6.190;2023-03-03T02:22:05;99894.95;;;-3.07;76.03
63447;BME280;49577;49.872;6.190;2023-03-03T02:24:42;99900.59;;;-3.12;75.58
63447;BME280;49577;49.872;6.190;2023-03-03T02:27:09;99900.10;;;-3.18;75.59
63447;BME280;49577;49.872;6.190;2023-03-03T02:29:35;99904.39;;;-3.23;75.71
63447;BME280;49577;49.872;6.190;2023-03-03T02:32:00;99905.77;;;-3.26;75.72
63447;BME280;49577;49.872;6.190;2023-03-03T02:34:26;99906.80;;;-3.31;75.85
63447;BME280;49577;49.872;6.190;2023-03-03T02:36:51;99911.76;;;-3.35;75.78
63447;BME280;49577;49.872;6.190;2023-03-03T02:39:18;99911.41;;;-3.40;76.01
63447;BME280;49577;49.872;6.190;2023-03-03T02:44:36;99905.59;;;-3.31;76.44
63447;BME280;49577;49.872;6.190;2023-03-03T02:47:02;99904.23;;;-3.28;76.28
63447;BME280;49577;49.872;6.190;2023-03-03T02:49:30;99905.24;;;-3.25;76.15
63447;BME280;49577;49.872;6.190;2023-03-03T02:51:56;99901.84;;;-3.27;75.74
63447;BME280;49577;49.872;6.190;2023-03-03T02:54:24;99899.45;;;-3.32;75.69
63447;BME280;49577;49.872;6.190;2023-03-03T02:56:49;99900.14;;;-3.37;75.88
63447;BME280;49577;49.872;6.190;2023-03-03T02:59:15;99904.42;;;-3.42;76.06
63447;BME280;49577;49.872;6.190;2023-03-03T03:01:41;99900.00;;;-3.47;76.25
63447;BME280;49577;49.872;6.190;2023-03-03T03:04:12;99899.66;;;-3.50;76.31
63447;BME280;49577;49.872;6.190;2023-03-03T03:06:38;99901.70;;;-3.54;76.15
63447;BME280;49577;49.872;6.190;2023-03-03T03:09:05;99902.56;;;-3.56;76.49
63447;BME280;49577;49.872;6.190;2023-03-03T03:11:31;99903.23;;;-3.52;76.72
63447;BME280;49577;49.872;6.190;2023-03-03T03:13:57;99901.00;;;-3.49;76.57
63447;BME280;49577;49.872;6.190;2023-03-03T03:16:22;99904.60;;;-3.51;76.15
63447;BME280;49577;49.872;6.190;2023-03-03T03:18:48;99901.70;;;-3.53;76.34
63447;BME280;49577;49.872;6.190;2023-03-03T03:21:15;99901.36;;;-3.52;76.34
63447;BME280;49577;49.872;6.190;2023-03-03T03:23:40;99904.61;;;-3.55;76.27
63447;BME280;49577;49.872;6.190;2023-03-03T03:26:06;99902.56;;;-3.56;76.37
63447;BME280;49577;49.872;6.190;2023-03-03T03:28:32;99901.20;;;-3.53;76.56
63447;BME280;49577;49.872;6.190;2023-03-03T03:30:57;99905.80;;;-3.51;76.53
63447;BME280;49577;49.872;6.190;2023-03-03T03:33:23;99904.27;;;-3.51;76.45
63447;BME280;49577;49.872;6.190;2023-03-03T03:35:48;99907.17;;;-3.55;76.35
63447;BME280;49577;49.872;6.190;2023-03-03T03:38:15;99907.34;;;-3.60;76.14
63447;BME280;49577;49.872;6.190;2023-03-03T03:40:41;99911.45;;;-3.77;75.83
63447;BME280;49577;49.872;6.190;2023-03-03T03:43:06;99909.23;;;-3.88;76.32
63447;BME280;49577;49.872;6.190;2023-03-03T03:45:32;99907.86;;;-3.92;76.70
63447;BME280;49577;49.872;6.190;2023-03-03T03:47:57;99908.70;;;-3.89;76.97
63447;BME280;49577;49.872;6.190;2023-03-03T03:50:23;99909.23;;;-3.88;76.75
63447;BME280;49577;49.872;6.190;2023-03-03T03:52:48;99909.05;;;-3.93;76.24
63447;BME280;49577;49.872;6.190;2023-03-03T03:55:14;99915.53;;;-3.96;76.50
63447;BME280;49577;49.872;6.190;2023-03-03T03:57:40;99916.89;;;-3.99;76.61
63447;BME280;49577;49.872;6.190;2023-03-03T04:00:07;99921.49;;;-4.03;76.64
63447;BME280;49577;49.872;6.190;2023-03-03T04:02:33;99921.85;;;-4.05;77.04
63447;BME280;49577;49.872;6.190;2023-03-03T04:04:59;99924.22;;;-4.02;77.27
63447;BME280;49577;49.872;6.190;2023-03-03T04:07:25;99924.40;;;-4.04;76.94
63447;BME280;49577;49.872;6.190;2023-03-03T04:09:50;99920.98;;;-4.08;76.76
63447;BME280;49577;49.872;6.190;2023-03-03T04:12:16;99918.91;;;-4.12;76.98
63447;BME280;49577;49.872;6.190;2023-03-03T04:14:41;99916.35;;;-4.16;76.86
63447;BME280;49577;49.872;6.190;2023-03-03T04:17:06;99916.00;;;-4.21;77.15
63447;BME280;49577;49.872;6.190;2023-03-03T04:19:32;99915.84;;;-4.23;77.37
63447;BME280;49577;49.872;6.190;2023-03-03T04:21:57;99921.28;;;-4.26;77.26
63447;BME280;49577;49.872;6.190;2023-03-03T04:24:22;99923.16;;;-4.26;77.40
63447;BME280;49577;49.872;6.190;2023-03-03T04:26:48;99916.34;;;-4.26;77.52
63447;BME280;49577;49.872;6.190;2023-03-03T04:29:13;99918.38;;;-4.26;77.48
63447;BME280;49577;49.872;6.190;2023-03-03T04:31:38;99919.92;;;-4.27;77.40
63447;BME280;49577;49.872;6.190;2023-03-03T04:34:04;99914.95;;;-4.29;77.45
63447;BME280;49577;49.872;6.190;2023-03-03T04:36:30;99919.23;;;-4.26;77.63
63447;BME280;49577;49.872;6.190;2023-03-03T04:38:55;99921.27;;;-4.25;77.34
63447;BME280;49577;49.872;6.190;2023-03-03T04:41:20;99927.08;;;-4.29;77.20
63447;BME280;49577;49.872;6.190;2023-03-03T04:43:46;99928.10;;;-4.33;77.32
63447;BME280;49577;49.872;6.190;2023-03-03T04:46:11;99927.55;;;-4.37;77.38
63447;BME280;49577;49.872;6.190;2023-03-03T04:48:36;99927.89;;;-4.43;77.43
63447;BME280;49577;49.872;6.190;2023-03-03T04:51:02;99923.45;;;-4.46;77.90
63447;BME280;49577;49.872;6.190;2023-03-03T04:53:28;99924.81;;;-4.46;78.06
63447;BME280;49577;49.872;6.190;2023-03-03T04:55:53;99929.60;;;-4.46;77.88
63447;BME280;49577;49.872;6.190;2023-03-03T04:58:19;99932.65;;;-4.48;77.79
63447;BME280;49577;49.872;6.190;2023-03-03T05:00:54;99931.79;;;-4.48;78.05
63447;BME280;49577;49.872;6.190;2023-03-03T05:03:20;99931.13;;;-4.42;78.52
63447;BME280;49577;49.872;6.190;2023-03-03T05:05:46;99931.30;;;-4.38;78.09
63447;BME280;49577;49.872;6.190;2023-03-03T05:08:12;99931.99;;;-4.39;77.74
63447;BME280;49577;49.872;6.190;2023-03-03T05:10:38;99932.17;;;-4.41;77.65
63447;BME280;49577;49.872;6.190;2023-03-03T05:13:04;99929.24;;;-4.44;77.64
63447;BME280;49577;49.872;6.190;2023-03-03T05:15:29;99931.45;;;-4.47;77.70
63447;BME280;49577;49.872;6.190;2023-03-03T05:17:55;99935.54;;;-4.48;77.94
63447;BME280;49577;49.872;6.190;2023-03-03T05:20:21;99934.70;;;-4.47;78.25
63447;BME280;49577;49.872;6.190;2023-03-03T05:22:46;99934.36;;;-4.44;78.18
63447;BME280;49577;49.872;6.190;2023-03-03T05:25:12;99938.98;;;-4.45;77.83
63447;BME280;49577;49.872;6.190;2023-03-03T05:27:37;99937.77;;;-4.48;77.52
63447;BME280;49577;49.872;6.190;2023-03-03T05:30:03;99939.45;;;-4.51;77.54
63447;BME280;49577;49.872;6.190;2023-03-03T05:32:29;99945.25;;;-4.54;77.60
63447;BME280;49577;49.872;6.190;2023-03-03T05:34:54;99948.63;;;-4.60;77.43
63447;BME280;49577;49.872;6.190;2023-03-03T05:37:19;99946.58;;;-4.65;77.70
63447;BME280;49577;49.872;6.190;2023-03-03T05:39:45;99946.92;;;-4.63;78.35
63447;BME280;49577;49.872;6.190;2023-03-03T05:42:14;99944.39;;;-4.53;78.60
63447;BME280;49577;49.872;6.190;2023-03-03T05:44:39;99941.87;;;-4.43;78.56
63447;BME280;49577;49.872;6.190;2023-03-03T05:47:05;99945.98;;;-4.41;78.02
63447;BME280;49577;49.872;6.190;2023-03-03T05:49:30;99949.21;;;-4.44;77.62
63447;BME280;49577;49.872;6.190;2023-03-03T05:51:55;99951.39;;;-4.50;77.55
63447;BME280;49577;49.872;6.190;2023-03-03T05:54:21;99955.63;;;-4.57;77.58
63447;BME280;49577;49.872;6.190;2023-03-03T05:56:46;99955.28;;;-4.63;77.84
63447;BME280;49577;49.872;6.190;2023-03-03T05:59:12;99956.80;;;-4.64;78.39
63447;BME280;49577;49.872;6.190;2023-03-03T06:01:37;99959.03;;;-4.57;78.57
63447;BME280;49577;49.872;6.190;2023-03-03T06:04:02;99963.48;;;-4.55;78.18
63447;BME280;49577;49.872;6.190;2023-03-03T06:06:28;99966.20;;;-4.55;77.93
63447;BME280;49577;49.872;6.190;2023-03-03T06:08:53;99970.80;;;-4.60;77.63
63447;BME280;49577;49.872;6.190;2023-03-03T06:11:18;99971.79;;;-4.66;77.74
63447;BME280;49577;49.872;6.190;2023-03-03T06:13:44;99973.31;;;-4.68;77.93
63447;BME280;49577;49.872;6.190;2023-03-03T06:16:09;99976.72;;;-4.69;78.22
63447;BME280;49577;49.872;6.190;2023-03-03T06:18:35;99976.89;;;-4.70;77.98
63447;BME280;49577;49.872;6.190;2023-03-03T06:21:00;99978.91;;;-4.74;78.14
63447;BME280;49577;49.872;6.190;2023-03-03T06:23:25;99982.48;;;-4.73;78.21
63447;BME280;49577;49.872;6.190;2023-03-03T06:25:51;99981.14;;;-4.72;78.12
63447;BME280;49577;49.872;6.190;2023-03-03T06:28:17;99979.44;;;-4.71;77.87
63447;BME280;49577;49.872;6.190;2023-03-03T06:30:43;99982.16;;;-4.69;78.07
63447;BME280;49577;49.872;6.190;2023-03-03T06:33:08;99985.10;;;-4.65;78.19
63447;BME280;49577;49.872;6.190;2023-03-03T06:35:33;99980.17;;;-4.59;78.19
63447;BME280;49577;49.872;6.190;2023-03-03T06:37:59;99985.17;;;-4.46;78.45
63447;BME280;49577;49.872;6.190;2023-03-03T06:40:24;99985.95;;;-4.24;78.58
63447;BME280;49577;49.872;6.190;2023-03-03T06:42:49;99991.30;;;-3.92;78.33
63447;BME280;49577;49.872;6.190;2023-03-03T06:45:15;99989.98;;;-3.57;77.81
63447;BME280;49577;49.872;6.190;2023-03-03T06:47:40;99995.46;;;-3.30;77.24
63447;BME280;49577;49.872;6.190;2023-03-03T06:50:07;99993.38;;;-3.00;76.56
63447;BME280;49577;49.872;6.190;2023-03-03T06:52:33;99995.20;;;-2.74;76.06
63447;BME280;49577;49.872;6.190;2023-03-03T06:55:01;99994.40;;;-2.36;75.53
63447;BME280;49577;49.872;6.190;2023-03-03T06:57:34;99992.11;;;-1.66;74.89
63447;BME280;49577;49.872;6.190;2023-03-03T07:00:13;99992.70;;;-0.92;73.48
63447;BME280;49577;49.872;6.190;2023-03-03T07:02:40;99997.45;;;-0.13;72.39
63447;BME280;49577;49.872;6.190;2023-03-03T07:05:11;99999.39;;;0.67;71.14
63447;BME280;49577;49.872;6.190;2023-03-03T07:07:38;100001.65;;;1.52;69.68
63447;BME280;49577;49.872;6.190;2023-03-03T07:10:10;100006.52;;;2.32;68.05
63447;BME280;49577;49.872;6.190;2023-03-03T07:12:37;100003.98;;;2.95;65.63
63447;BME280;49577;49.872;6.190;2023-03-03T07:15:24;100003.64;;;3.60;64.54
63447;BME280;49577;49.872;6.190;2023-03-03T07:17:55;100005.52;;;4.21;61.68
63447;BME280;49577;49.872;6.190;2023-03-03T07:20:40;100007.98;;;4.53;59.99
63447;BME280;49577;49.872;6.190;2023-03-03T07:23:25;100012.89;;;4.83;58.16
63447;BME280;49577;49.872;6.190;2023-03-03T07:25:52;100005.81;;;5.14;56.60
63447;BME280;49577;49.872;6.190;2023-03-03T07:28:26;100009.27;;;5.33;55.75
63447;BME280;49577;49.872;6.190;2023-03-03T07:30:52;100010.52;;;5.67;55.06
63447;BME280;49577;49.872;6.190;2023-03-03T07:33:22;100012.89;;;6.11;54.54
63447;BME280;49577;49.872;6.190;2023-03-03T07:35:49;100015.77;;;6.58;53.37
63447;BME280;49577;49.872;6.190;2023-03-03T07:40:51;100025.05;;;7.52;51.80
63447;BME280;49577;49.872;6.190;2023-03-03T07:43:39;100029.18;;;8.07;50.58
63447;BME280;49577;49.872;6.190;2023-03-03T07:48:40;100031.36;;;8.91;47.81
63447;BME280;49577;49.872;6.190;2023-03-03T07:51:28;100030.55;;;9.25;47.13
63447;BME280;49577;49.872;6.190;2023-03-03T07:54:11;100036.67;;;9.82;45.74
63447;BME280;49577;49.872;6.190;2023-03-03T07:56:38;100040.55;;;10.43;44.74
63447;BME280;49577;49.872;6.190;2023-03-03T07:59:37;100039.79;;;10.84;43.86
63447;BME280;49577;49.872;6.190;2023-03-03T08:02:15;100041.48;;;11.60;42.67
63447;BME280;49577;49.872;6.190;2023-03-03T08:04:46;100039.85;;;12.49;41.59
63447;BME280;49577;49.872;6.190;2023-03-03T08:07:18;100042.80;;;13.17;40.24
63447;BME280;49577;49.872;6.190;2023-03-03T08:10:00;100039.63;;;13.82;39.78
63447;BME280;49577;49.872;6.190;2023-03-03T08:15:38;100041.57;;;15.37;37.11
63447;BME280;49577;49.872;6.190;2023-03-03T08:18:15;100039.13;;;16.15;35.92
63447;BME280;49577;49.872;6.190;2023-03-03T08:20:48;100039.16;;;16.81;34.52
63447;BME280;49577;49.872;6.190;2023-03-03T08:23:15;100036.48;;;17.03;33.44
63447;BME280;49577;49.872;6.190;2023-03-03T08:25:41;100036.20;;;17.06;32.59
63447;BME280;49577;49.872;6.190;2023-03-03T08:28:07;100032.77;;;17.05;32.49
63447;BME280;49577;49.872;6.190;2023-03-03T08:30:32;100037.16;;;17.37;32.08
63447;BME280;49577;49.872;6.190;2023-03-03T08:32:58;100040.00;;;17.66;31.72
63447;BME280;49577;49.872;6.190;2023-03-03T08:35:23;100046.19;;;17.84;30.88
63447;BME280;49577;49.872;6.190;2023-03-03T08:37:48;100051.09;;;17.97;30.49
63447;BME280;49577;49.872;6.190;2023-03-03T08:40:14;100058.04;;;18.13;30.44
63447;BME280;49577;49.872;6.190;2023-03-03T08:42:39;100064.79;;;18.23;29.76
63447;BME280;49577;49.872;6.190;2023-03-03T08:45:05;100066.75;;;18.16;29.71
63447;BME280;49577;49.872;6.190;2023-03-03T08:47:30;100070.82;;;18.21;29.77
63447;BME280;49577;49.872;6.190;2023-03-03T08:49:55;100069.13;;;18.36;29.51
63447;BME280;49577;49.872;6.190;2023-03-03T08:52:21;100067.92;;;18.41;29.24
63447;BME280;49577;49.872;6.190;2023-03-03T08:54:46;100068.43;;;18.33;28.94
63447;BME280;49577;49.872;6.190;2023-03-03T08:57:11;100073.03;;;18.09;29.13
63447;BME280;49577;49.872;6.190;2023-03-03T08:59:37;100069.45;;;18.02;29.52
63447;BME280;49577;49.872;6.190;2023-03-03T09:02:04;100074.94;;;18.28;29.18
63447;BME280;49577;49.872;6.190;2023-03-03T09:04:30;100075.52;;;18.33;28.76
63447;BME280;49577;49.872;6.190;2023-03-03T09:06:55;100075.79;;;18.26;28.57
63447;BME280;49577;49.872;6.190;2023-03-03T09:09:20;100075.17;;;18.36;28.71
63447;BME280;49577;49.872;6.190;2023-03-03T09:11:46;100080.65;;;18.87;28.57
63447;BME280;49577;49.872;6.190;2023-03-03T09:14:13;100080.48;;;19.25;28.38
63447;BME280;49577;49.872;6.190;2023-03-03T09:16:47;100078.79;;;19.60;27.89
63447;BME280;49577;49.872;6.190;2023-03-03T09:19:40;100076.60;;;19.93;27.58
63447;BME280;49577;49.872;6.190;2023-03-03T09:22:25;100076.51;;;20.24;27.01
63447;BME280;49577;49.872;6.190;2023-03-03T09:24:56;100077.52;;;20.36;26.49
63447;BME280;49577;49.872;6.190;2023-03-03T09:27:30;100072.98;;;20.70;26.50
63447;BME280;49577;49.872;6.190;2023-03-03T09:32:51;100071.96;;;21.09;25.74
63447;BME280;49577;49.872;6.190;2023-03-03T09:35:37;100074.64;;;21.28;25.70
63447;BME280;49577;49.872;6.190;2023-03-03T09:38:32;100078.31;;;21.26;25.15
63447;BME280;49577;49.872;6.190;2023-03-03T09:41:25;100086.39;;;20.98;24.94
63447;BME280;49577;49.872;6.190;2023-03-03T09:46:46;100089.63;;;21.01;24.82
63447;BME280;49577;49.872;6.190;2023-03-03T09:49:52;100087.14;;;20.48;24.90
63447;BME280;49577;49.872;6.190;2023-03-03T09:52:32;100086.41;;;20.32;25.04
63447;BME280;49577;49.872;6.190;2023-03-03T10:00:54;100085.79;;;20.62;25.41
63447;BME280;49577;49.872;6.190;2023-03-03T10:06:59;100076.73;;;20.68;25.26
63447;BME280;49577;49.872;6.190;2023-03-03T10:15:26;100082.75;;;20.48;24.94
63447;BME280;49577;49.872;6.190;2023-03-03T10:18:02;100088.34;;;20.26;25.04
63447;BME280;49577;49.872;6.190;2023-03-03T10:24:25;100086.66;;;19.09;25.90
63447;BME280;49577;49.872;6.190;2023-03-03T10:40:46;100083.61;;;19.65;26.47
63447;BME280;49577;49.872;6.190;2023-03-03T10:46:18;100085.73;;;20.43;25.51
63447;BME280;49577;49.872;6.190;2023-03-03T10:54:27;100084.69;;;20.18;25.24
63447;BME280;49577;49.872;6.190;2023-03-03T10:57:25;100089.11;;;20.26;25.28
63447;BME280;49577;49.872;6.190;2023-03-03T11:02:48;100089.71;;;20.41;24.87
63447;BME280;49577;49.872;6.190;2023-03-03T11:05:39;100090.10;;;19.89;24.48
63447;BME280;49577;49.872;6.190;2023-03-03T11:08:40;100090.21;;;19.38;25.33
63447;BME280;49577;49.872;6.190;2023-03-03T11:13:48;100093.23;;;18.87;25.93
63447;BME280;49577;49.872;6.190;2023-03-03T11:16:54;100091.46;;;19.09;25.83
63447;BME280;49577;49.872;6.190;2023-03-03T11:25:12;100078.96;;;19.53;25.02
63447;BME280;49577;49.872;6.190;2023-03-03T11:27:58;100077.20;;;18.94;25.54
63447;BME280;49577;49.872;6.190;2023-03-03T11:35:49;100067.95;;;19.26;26.16
63447;BME280;49577;49.872;6.190;2023-03-03T11:43:25;100060.90;;;20.00;25.10
63447;BME280;49577;49.872;6.190;2023-03-03T11:45:57;100051.87;;;19.96;24.19
63447;BME280;49577;49.872;6.190;2023-03-03T11:48:37;100053.94;;;19.65;24.50
63447;BME280;49577;49.872;6.190;2023-03-03T11:51:12;100050.17;;;19.42;24.81
63447;BME280;49577;49.872;6.190;2023-03-03T11:53:56;100051.48;;;18.83;25.32
63447;BME280;49577;49.872;6.190;2023-03-03T11:56:27;100046.70;;;18.71;25.77
63447;BME280;49577;49.872;6.190;2023-03-03T12:04:02;100041.36;;;19.55;25.03
63447;BME280;49577;49.872;6.190;2023-03-03T12:06:50;100035.75;;;19.81;24.95
63447;BME280;49577;49.872;6.190;2023-03-03T12:09:27;100032.08;;;20.10;24.53
63447;BME280;49577;49.872;6.190;2023-03-03T12:22:51;100022.80;;;20.80;23.73
63447;BME280;49577;49.872;6.190;2023-03-03T12:25:28;100022.20;;;20.83;23.35
63447;BME280;49577;49.872;6.190;2023-03-03T12:39:06;100009.70;;;20.11;23.78
63447;BME280;49577;49.872;6.190;2023-03-03T12:41:54;100011.94;;;19.83;23.70
63447;BME280;49577;49.872;6.190;2023-03-03T12:56:13;99999.71;;;19.99;23.85
63447;BME280;49577;49.872;6.190;2023-03-03T12:58:54;100001.09;;;19.46;23.64
63447;BME280;49577;49.872;6.190;2023-03-03T13:01:55;100002.27;;;18.58;24.15
63447;BME280;49577;49.872;6.190;2023-03-03T13:04:36;100000.67;;;17.08;25.36
63447;BME280;49577;49.872;6.190;2023-03-03T13:07:14;100002.38;;;16.19;27.01
63447;BME280;49577;49.872;6.190;2023-03-03T13:15:27;100003.47;;;15.04;28.54
63447;BME280;49577;49.872;6.190;2023-03-03T13:20:54;99996.23;;;14.76;28.88
63447;BME280;49577;49.872;6.190;2023-03-03T13:25:59;99998.77;;;14.19;29.76
63447;BME280;49577;49.872;6.190;2023-03-03T13:28:33;99998.77;;;13.99;29.74
63447;BME280;49577;49.872;6.190;2023-03-03T13:31:20;99992.52;;;13.78;29.73
63447;BME280;49577;49.872;6.190;2023-03-03T13:33:54;99992.88;;;13.48;29.82
63447;BME280;49577;49.872;6.190;2023-03-03T13:36:25;99993.59;;;13.16;30.21
63447;BME280;49577;49.872;6.190;2023-03-03T13:38:59;99986.65;;;12.81;30.84
63447;BME280;49577;49.872;6.190;2023-03-03T13:42:03;99986.41;;;12.49;31.14
63447;BME280;49577;49.872;6.190;2023-03-03T13:44:35;99982.83;;;12.26;32.14
63447;BME280;49577;49.872;6.190;2023-03-03T13:52:23;99977.78;;;12.45;31.79
63447;BME280;49577;49.872;6.190;2023-03-03T13:54:52;99971.96;;;12.56;31.62
63447;BME280;49577;49.872;6.190;2023-03-03T14:05:48;99963.23;;;12.64;32.27
63447;BME280;49577;49.872;6.190;2023-03-03T14:19:16;99950.64;;;12.55;32.01
63447;BME280;49577;49.872;6.190;2023-03-03T14:25:00;99938.28;;;12.57;31.96
63447;BME280;49577;49.872;6.190;2023-03-03T14:27:36;99935.91;;;12.53;31.81
63447;BME280;49577;49.872;6.190;2023-03-03T14:32:59;99932.08;;;12.09;32.13
63447;BME280;49577;49.872;6.190;2023-03-03T14:35:29;99926.08;;;12.02;32.33
63447;BME280;49577;49.872;6.190;2023-03-03T14:38:00;99925.98;;;12.03;32.38
63447;BME280;49577;49.872;6.190;2023-03-03T14:40:31;99928.12;;;12.05;32.72
63447;BME280;49577;49.872;6.190;2023-03-03T14:42:59;99926.67;;;11.95;32.51
63447;BME280;49577;49.872;6.190;2023-03-03T14:47:57;99925.16;;;11.71;32.55
63447;BME280;49577;49.872;6.190;2023-03-03T14:53:44;99920.34;;;11.48;32.52
63447;BME280;49577;49.872;6.190;2023-03-03T14:56:25;99918.42;;;11.38;33.06
63447;BME280;49577;49.872;6.190;2023-03-03T14:58:54;99918.14;;;11.37;33.07
63447;BME280;49577;49.872;6.190;2023-03-03T15:01:35;99918.95;;;11.35;32.79
63447;BME280;49577;49.872;6.190;2023-03-03T15:09:38;99925.05;;;10.93;33.26
63447;BME280;49577;49.872;6.190;2023-03-03T15:12:20;99925.58;;;10.80;32.89
63447;BME280;49577;49.872;6.190;2023-03-03T15:14:48;99925.34;;;10.67;32.62
63447;BME280;49577;49.872;6.190;2023-03-03T15:17:27;99928.55;;;10.56;33.33
63447;BME280;49577;49.872;6.190;2023-03-03T15:22:47;99929.34;;;10.49;34.42
63447;BME280;49577;49.872;6.190;2023-03-03T15:28:35;99930.37;;;10.43;34.74
63447;BME280;49577;49.872;6.190;2023-03-03T15:46:14;99928.78;;;10.08;35.70
63447;BME280;49577;49.872;6.190;2023-03-03T15:48:56;99927.52;;;10.03;35.98
63447;BME280;49577;49.872;6.190;2023-03-03T16:05:15;99935.51;;;9.75;37.68
63447;BME280;49577;49.872;6.190;2023-03-03T16:19:00;99948.88;;;9.37;37.98
63447;BME280;49577;49.872;6.190;2023-03-03T16:27:42;99958.58;;;9.04;36.07
63447;BME280;49577;49.872;6.190;2023-03-03T16:32:42;99966.30;;;8.85;36.75
63447;BME280;49577;49.872;6.190;2023-03-03T16:38:08;99967.54;;;8.60;36.41
63447;BME280;49577;49.872;6.190;2023-03-03T16:40:36;99972.98;;;8.49;37.03
63447;BME280;49577;49.872;6.190;2023-03-03T16:45:36;99980.71;;;8.24;37.98
63447;BME280;49577;49.872;6.190;2023-03-03T16:56:59;99996.48;;;7.77;39.19
63447;BME280;49577;49.872;6.190;2023-03-03T17:02:34;100008.66;;;7.45;40.09
63447;BME280;49577;49.872;6.190;2023-03-03T17:05:26;100016.55;;;7.27;39.57
63447;BME280;49577;49.872;6.190;2023-03-03T17:11:08;100026.20;;;6.96;39.19
63447;BME280;49577;49.872;6.190;2023-03-03T17:13:57;100029.95;;;6.85;39.43
63447;BME280;49577;49.872;6.190;2023-03-03T17:16:52;100034.48;;;6.72;39.65
63447;BME280;49577;49.872;6.190;2023-03-03T17:25:39;100053.27;;;6.31;40.66
63447;BME280;49577;49.872;6.190;2023-03-03T17:28:31;100056.45;;;6.16;40.91
63447;BME280;49577;49.872;6.190;2023-03-03T17:34:06;100063.42;;;5.96;42.20
63447;BME280;49577;49.872;6.190;2023-03-03T17:39:49;100077.09;;;5.71;43.04
63447;BME280;49577;49.872;6.190;2023-03-03T17:42:36;100078.55;;;5.59;43.48
63447;BME280;49577;49.872;6.190;2023-03-03T17:45:11;100085.48;;;5.45;43.96
63447;BME280;49577;49.872;6.190;2023-03-03T17:53:14;100100.19;;;4.92;45.68